Time;durP1;ratioP1;P1;durP2;ratioP2;P2;SDS_P1;SDS_P2;PMS_P1;PMS_P2;Temp;Humidity;BMP_temperature;BMP_pressure;BME280_temperature;BME280_humidity;BME280_pressure;Samples;Min_cycle;Max_cycle;Signal;HPM_P1;HPM_P2
2024/02/10 11:09:41;;;;;;;0;0;;;;;;;0;0;0;;;;
2024/02/10 11:10:44;;;;;;;0;0;;;;;;;0;0;0;;;;
2024/02/10 11:11:46;;;;;;;0;0;;;;;;;0;0;0;;;;
2024/02/10 11:12:47;;;;;;;0;0;;;;;;;0;0;0;;;;
2024/02/10 11:13:47;;;;;;;0;0;;;;;;;0;0;0;;;;
2024/02/10 11:14:48;;;;;;;0;0;;;;;;;0;0;0;;;;
2024/02/10 11:15:50;;;;;;;0;0;;;;;;;0;0;0;;;;
2024/02/10 11:17:03;;;;;;;0;0;;;;;;;0;0;0;;;;
2024/02/10 11:18:10;;;;;;;0;0;;;;;;;0;0;0;;;;
2024/02/10 11:19:15;;;;;;;0;0;;;;;;;0;0;0;;;;
2024/02/10 11:20:15;;;;;;;0;0;;;;;;;0;0;0;;;;
2024/02/10 11:21:18;;;;;;;0;0;;;;;;;0;0;0;;;;
2024/02/10 11:22:20;;;;;;;0;0;;;;;;;0;0;0;;;;
2024/02/10 11:23:21;;;;;;;0;0;;;;;;;0;0;0;;;;
2024/02/10 11:24:22;;;;;;;0;0;;;;;;;0;0;0;;;;
2024/02/10 11:25:32;;;;;;;0;0;;;;;;;0;0;0;;;;
2024/02/10 11:26:38;;;;;;;0;0;;;;;;;0;0;0;;;;
2024/02/10 11:27:39;;;;;;;0;0;;;;;;;0;0;0;;;;
2024/02/10 11:28:41;;;;;;;0;0;;;;;;;0;0;0;;;;
2024/02/10 11:29:42;;;;;;;15.85;7.3;;;;;;;23.62;42.73438;92536.24;;;;
2024/02/10 11:30:42;;;;;;;15.85;7.3;;;;;;;23.62;42.73438;92536.24;;;;
2024/02/10 11:31:43;;;;;;;15.85;7.3;;;;;;;23.62;42.73438;92536.24;;;;
2024/02/10 11:32:47;;;;;;;15.85;7.3;;;;;;;23.62;42.73438;92536.24;;;;
2024/02/10 11:33:48;;;;;;;15.85;7.3;;;;;;;23.62;42.73438;92536.24;;;;
2024/02/10 11:34:48;;;;;;;15.85;7.3;;;;;;;23.62;42.73438;92536.24;;;;
2024/02/10 11:35:52;;;;;;;15.85;7.3;;;;;;;23.62;42.73438;92536.24;;;;
2024/02/10 11:36:54;;;;;;;15.85;7.3;;;;;;;23.62;42.73438;92536.24;;;;
2024/02/10 11:37:55;;;;;;;15.85;7.3;;;;;;;23.62;42.73438;92536.24;;;;
2024/02/10 11:38:56;;;;;;;15.85;7.3;;;;;;;23.62;42.73438;92536.24;;;;
2024/02/10 11:39:56;;;;;;;11.85;5.75;;;;;;;23.44;42.24805;92522.8;;;;
2024/02/10 11:40:57;;;;;;;11.85;5.75;;;;;;;23.44;42.24805;92522.8;;;;
2024/02/10 11:41:58;;;;;;;11.85;5.75;;;;;;;23.44;42.24805;92522.8;;;;
2024/02/10 11:42:59;;;;;;;11.85;5.75;;;;;;;23.44;42.24805;92522.8;;;;
2024/02/10 11:44:02;;;;;;;11.85;5.75;;;;;;;23.44;42.24805;92522.8;;;;
2024/02/10 11:45:03;;;;;;;11.85;5.75;;;;;;;23.44;42.24805;92522.8;;;;
2024/02/10 11:46:08;;;;;;;11.85;5.75;;;;;;;23.44;42.24805;92522.8;;;;
2024/02/10 11:47:09;;;;;;;11.85;5.75;;;;;;;23.44;42.24805;92522.8;;;;
2024/02/10 11:48:09;;;;;;;11.85;5.75;;;;;;;23.44;42.24805;92522.8;;;;
2024/02/10 11:49:11;;;;;;;6.7;4.599999;;;;;;;24.21;39.7207;92494.02;;;;
2024/02/10 11:50:12;;;;;;;6.7;4.599999;;;;;;;24.21;39.7207;92494.02;;;;
2024/02/10 11:51:12;;;;;;;6.7;4.599999;;;;;;;24.21;39.7207;92494.02;;;;
2024/02/10 11:52:13;;;;;;;6.7;4.599999;;;;;;;24.21;39.7207;92494.02;;;;
2024/02/10 11:53:14;;;;;;;6.7;4.599999;;;;;;;24.21;39.7207;92494.02;;;;
2024/02/10 11:54:16;;;;;;;6.7;4.599999;;;;;;;24.21;39.7207;92494.02;;;;
2024/02/10 11:55:19;;;;;;;6.7;4.599999;;;;;;;24.21;39.7207;92494.02;;;;
2024/02/10 11:56:19;;;;;;;6.7;4.599999;;;;;;;24.21;39.7207;92494.02;;;;
2024/02/10 11:57:22;;;;;;;6.7;4.599999;;;;;;;24.21;39.7207;92494.02;;;;
2024/02/10 11:58:26;;;;;;;6.7;4.599999;;;;;;;24.21;39.7207;92494.02;;;;
2024/02/10 11:59:28;;;;;;;9.700001;6.8;;;;;;;23.93;39.52637;92478.33;;;;
2024/02/10 12:00:32;;;;;;;9.700001;6.8;;;;;;;23.93;39.52637;92478.33;;;;
2024/02/10 12:01:33;;;;;;;9.700001;6.8;;;;;;;23.93;39.52637;92478.33;;;;
2024/02/10 12:02:34;;;;;;;9.700001;6.8;;;;;;;23.93;39.52637;92478.33;;;;
2024/02/10 12:03:34;;;;;;;9.700001;6.8;;;;;;;23.93;39.52637;92478.33;;;;
2024/02/10 12:04:35;;;;;;;9.700001;6.8;;;;;;;23.93;39.52637;92478.33;;;;
2024/02/10 12:05:38;;;;;;;9.700001;6.8;;;;;;;23.93;39.52637;92478.33;;;;
2024/02/10 12:06:40;;;;;;;9.700001;6.8;;;;;;;23.93;39.52637;92478.33;;;;
2024/02/10 12:07:40;;;;;;;9.700001;6.8;;;;;;;23.93;39.52637;92478.33;;;;
2024/02/10 12:08:43;;;;;;;9.700001;6.8;;;;;;;23.93;39.52637;92478.33;;;;
2024/02/10 12:09:43;;;;;;;11.05;7.05;;;;;;;23.54;40.98047;92469.81;;;;
2024/02/10 12:10:44;;;;;;;11.05;7.05;;;;;;;23.54;40.98047;92469.81;;;;
2024/02/10 12:11:46;;;;;;;11.05;7.05;;;;;;;23.54;40.98047;92469.81;;;;
2024/02/10 12:12:46;;;;;;;11.05;7.05;;;;;;;23.54;40.98047;92469.81;;;;
2024/02/10 12:13:51;;;;;;;11.05;7.05;;;;;;;23.54;40.98047;92469.81;;;;
2024/02/10 12:14:51;;;;;;;11.05;7.05;;;;;;;23.54;40.98047;92469.81;;;;
2024/02/10 12:15:52;;;;;;;11.05;7.05;;;;;;;23.54;40.98047;92469.81;;;;
2024/02/10 12:16:59;;;;;;;11.05;7.05;;;;;;;23.54;40.98047;92469.81;;;;
2024/02/10 12:17:59;;;;;;;11.05;7.05;;;;;;;23.54;40.98047;92469.81;;;;
2024/02/10 12:19:01;;;;;;;11.05;7.05;;;;;;;23.54;40.98047;92469.81;;;;
2024/02/10 12:20:01;;;;;;;11.05;7.05;;;;;;;23.54;40.98047;92469.81;;;;
2024/02/10 12:21:04;;;;;;;8.300001;5.6;;;;;;;23.35;41.44336;92465.8;;;;
2024/02/10 12:22:05;;;;;;;8.300001;5.6;;;;;;;23.35;41.44336;92465.8;;;;
2024/02/10 12:23:09;;;;;;;8.300001;5.6;;;;;;;23.35;41.44336;92465.8;;;;
2024/02/10 12:24:13;;;;;;;8.300001;5.6;;;;;;;23.35;41.44336;92465.8;;;;
2024/02/10 12:25:14;;;;;;;8.300001;5.6;;;;;;;23.35;41.44336;92465.8;;;;
2024/02/10 12:26:14;;;;;;;8.300001;5.6;;;;;;;23.35;41.44336;92465.8;;;;
2024/02/10 12:27:15;;;;;;;8.300001;5.6;;;;;;;23.35;41.44336;92465.8;;;;
2024/02/10 12:28:15;;;;;;;8.300001;5.6;;;;;;;23.35;41.44336;92465.8;;;;
2024/02/10 12:29:16;;;;;;;8.300001;5.6;;;;;;;23.35;41.44336;92465.8;;;;
2024/02/10 12:30:16;;;;;;;8.300001;5.6;;;;;;;23.35;41.44336;92465.8;;;;
2024/02/10 12:31:19;;;;;;;7.85;5.45;;;;;;;23.13;40.8877;92453.47;;;;
2024/02/10 12:32:22;;;;;;;7.85;5.45;;;;;;;23.13;40.8877;92453.47;;;;
2024/02/10 12:33:24;;;;;;;7.85;5.45;;;;;;;23.13;40.8877;92453.47;;;;
2024/02/10 12:34:25;;;;;;;7.85;5.45;;;;;;;23.13;40.8877;92453.47;;;;
2024/02/10 12:35:26;;;;;;;7.85;5.45;;;;;;;23.13;40.8877;92453.47;;;;
2024/02/10 12:36:31;;;;;;;7.85;5.45;;;;;;;23.13;40.8877;92453.47;;;;
2024/02/10 12:37:31;;;;;;;7.85;5.45;;;;;;;23.13;40.8877;92453.47;;;;
2024/02/10 12:38:33;;;;;;;7.85;5.45;;;;;;;23.13;40.8877;92453.47;;;;
2024/02/10 12:39:33;;;;;;;7.85;5.45;;;;;;;23.13;40.8877;92453.47;;;;
2024/02/10 12:40:36;;;;;;;7.85;5.45;;;;;;;23.13;40.8877;92453.47;;;;
2024/02/10 12:41:36;;;;;;;8.9;5.65;;;;;;;23.14;41.04492;92434.63;;;;
2024/02/10 12:42:42;;;;;;;8.9;5.65;;;;;;;23.14;41.04492;92434.63;;;;
2024/02/10 12:43:43;;;;;;;8.9;5.65;;;;;;;23.14;41.04492;92434.63;;;;
2024/02/10 12:44:44;;;;;;;8.9;5.65;;;;;;;23.14;41.04492;92434.63;;;;
2024/02/10 12:45:47;;;;;;;8.9;5.65;;;;;;;23.14;41.04492;92434.63;;;;
2024/02/10 12:46:48;;;;;;;8.9;5.65;;;;;;;23.14;41.04492;92434.63;;;;
2024/02/10 12:47:52;;;;;;;8.9;5.65;;;;;;;23.14;41.04492;92434.63;;;;
2024/02/10 12:48:53;;;;;;;8.9;5.65;;;;;;;23.14;41.04492;92434.63;;;;
2024/02/10 12:49:56;;;;;;;8.9;5.65;;;;;;;23.14;41.04492;92434.63;;;;
2024/02/10 12:50:56;;;;;;;8.9;5.65;;;;;;;23.14;41.04492;92434.63;;;;
2024/02/10 12:51:57;;;;;;;8.9;5.65;;;;;;;23.14;41.04492;92434.63;;;;
2024/02/10 12:52:58;;;;;;;5.649999;4;;;;;;;22.88;40.26172;92419.89;;;;
2024/02/10 12:53:59;;;;;;;5.649999;4;;;;;;;22.88;40.26172;92419.89;;;;
2024/02/10 12:55:00;;;;;;;5.649999;4;;;;;;;22.88;40.26172;92419.89;;;;
2024/02/10 12:56:03;;;;;;;5.649999;4;;;;;;;22.88;40.26172;92419.89;;;;
2024/02/10 12:57:06;;;;;;;5.649999;4;;;;;;;22.88;40.26172;92419.89;;;;
2024/02/10 12:58:06;;;;;;;5.649999;4;;;;;;;22.88;40.26172;92419.89;;;;
2024/02/10 12:59:07;;;;;;;5.649999;4;;;;;;;22.88;40.26172;92419.89;;;;
2024/02/10 13:00:18;;;;;;;5.649999;4;;;;;;;22.88;40.26172;92419.89;;;;
2024/02/10 13:01:19;;;;;;;5.649999;4;;;;;;;22.88;40.26172;92419.89;;;;
2024/02/10 13:02:21;;;;;;;5.649999;4;;;;;;;22.88;40.26172;92419.89;;;;
2024/02/10 13:03:21;;;;;;;5.1;3.95;;;;;;;22.81;40.51172;92413.05;;;;
2024/02/10 13:04:22;;;;;;;5.1;3.95;;;;;;;22.81;40.51172;92413.05;;;;
2024/02/10 13:05:25;;;;;;;5.1;3.95;;;;;;;22.81;40.51172;92413.05;;;;
2024/02/10 13:06:26;;;;;;;5.1;3.95;;;;;;;22.81;40.51172;92413.05;;;;
2024/02/10 13:07:26;;;;;;;5.1;3.95;;;;;;;22.81;40.51172;92413.05;;;;
2024/02/10 13:08:27;;;;;;;5.1;3.95;;;;;;;22.81;40.51172;92413.05;;;;
2024/02/10 13:09:27;;;;;;;5.1;3.95;;;;;;;22.81;40.51172;92413.05;;;;
2024/02/10 13:10:28;;;;;;;5.1;3.95;;;;;;;22.81;40.51172;92413.05;;;;
2024/02/10 13:11:29;;;;;;;5.1;3.95;;;;;;;22.81;40.51172;92413.05;;;;
2024/02/10 13:12:29;;;;;;;5.1;3.95;;;;;;;22.81;40.51172;92413.05;;;;
2024/02/10 13:13:30;;;;;;;8.549999;4;;;;;;;22.9;40.66504;92400.5;;;;
2024/02/10 13:14:31;;;;;;;8.549999;4;;;;;;;22.9;40.66504;92400.5;;;;
2024/02/10 13:15:35;;;;;;;8.549999;4;;;;;;;22.9;40.66504;92400.5;;;;
2024/02/10 13:16:36;;;;;;;8.549999;4;;;;;;;22.9;40.66504;92400.5;;;;
2024/02/10 13:17:36;;;;;;;8.549999;4;;;;;;;22.9;40.66504;92400.5;;;;
2024/02/10 13:18:37;;;;;;;8.549999;4;;;;;;;22.9;40.66504;92400.5;;;;
2024/02/10 13:19:37;;;;;;;8.549999;4;;;;;;;22.9;40.66504;92400.5;;;;
2024/02/10 13:20:38;;;;;;;8.549999;4;;;;;;;22.9;40.66504;92400.5;;;;
2024/02/10 13:21:39;;;;;;;8.549999;4;;;;;;;22.9;40.66504;92400.5;;;;
2024/02/10 13:22:40;;;;;;;8.549999;4;;;;;;;22.9;40.66504;92400.5;;;;
2024/02/10 13:23:43;;;;;;;8.549999;4;;;;;;;22.9;40.66504;92400.5;;;;
2024/02/10 13:24:43;;;;;;;6.349999;4.349999;;;;;;;23.1;41.44336;92388.16;;;;
2024/02/10 13:25:48;;;;;;;6.349999;4.349999;;;;;;;23.1;41.44336;92388.16;;;;
2024/02/10 13:26:49;;;;;;;6.349999;4.349999;;;;;;;23.1;41.44336;92388.16;;;;
2024/02/10 13:27:51;;;;;;;6.349999;4.349999;;;;;;;23.1;41.44336;92388.16;;;;
2024/02/10 13:28:51;;;;;;;6.349999;4.349999;;;;;;;23.1;41.44336;92388.16;;;;
2024/02/10 13:29:52;;;;;;;6.349999;4.349999;;;;;;;23.1;41.44336;92388.16;;;;
2024/02/10 13:30:52;;;;;;;6.349999;4.349999;;;;;;;23.1;41.44336;92388.16;;;;
2024/02/10 13:31:55;;;;;;;6.349999;4.349999;;;;;;;23.1;41.44336;92388.16;;;;
2024/02/10 13:32:56;;;;;;;6.349999;4.349999;;;;;;;23.1;41.44336;92388.16;;;;
2024/02/10 13:33:57;;;;;;;6.349999;4.349999;;;;;;;23.1;41.44336;92388.16;;;;
2024/02/10 13:34:58;;;;;;;4.3;3.6;;;;;;;22.84;41.88867;92369.61;;;;
2024/02/10 13:35:59;;;;;;;4.3;3.6;;;;;;;22.84;41.88867;92369.61;;;;
2024/02/10 14:03:19;;;;;;;4.399999;3.8;;;;;;;22.98;41.54395;92361.77;;;;
2024/02/10 14:04:25;;;;;;;4.399999;3.8;;;;;;;22.98;41.54395;92361.77;;;;
2024/02/10 14:05:41;;;;;;;4.399999;3.8;;;;;;;22.98;41.54395;92361.77;;;;
2024/02/10 14:06:44;;;;;;;4.399999;3.8;;;;;;;22.98;41.54395;92361.77;;;;
2024/02/10 14:08:36;;;;;;;4.65;3.75;;;;;;;22.96;41.55371;92349.21;;;;
2024/02/10 14:09:38;;;;;;;4.65;3.75;;;;;;;22.96;41.55371;92349.21;;;;
2024/02/10 14:10:46;;;;;;;4.65;3.75;;;;;;;22.96;41.55371;92349.21;;;;
2024/02/10 14:11:52;;;;;;;4.65;3.75;;;;;;;22.96;41.55371;92349.21;;;;
2024/02/10 14:12:54;;;;;;;4.65;3.75;;;;;;;22.96;41.55371;92349.21;;;;
2024/02/10 14:13:55;;;;;;;4.65;3.75;;;;;;;22.96;41.55371;92349.21;;;;
2024/02/10 14:14:56;;;;;;;4.65;3.75;;;;;;;22.96;41.55371;92349.21;;;;
2024/02/10 14:15:56;;;;;;;4.65;3.75;;;;;;;22.96;41.55371;92349.21;;;;
2024/02/10 14:17:09;;;;;;;4.65;3.75;;;;;;;22.96;41.55371;92349.21;;;;
2024/02/10 14:18:09;;;;;;;4.8;3.7;;;;;;;22.86;41.83496;92352.89;;;;
2024/02/10 14:19:13;;;;;;;4.8;3.7;;;;;;;22.86;41.83496;92352.89;;;;
2024/02/10 14:20:18;;;;;;;4.8;3.7;;;;;;;22.86;41.83496;92352.89;;;;
2024/02/10 14:21:28;;;;;;;4.8;3.7;;;;;;;22.86;41.83496;92352.89;;;;
2024/02/10 14:22:29;;;;;;;4.8;3.7;;;;;;;22.86;41.83496;92352.89;;;;
2024/02/10 14:23:29;;;;;;;4.8;3.7;;;;;;;22.86;41.83496;92352.89;;;;
2024/02/10 14:24:30;;;;;;;4.8;3.7;;;;;;;22.86;41.83496;92352.89;;;;
2024/02/10 14:25:31;;;;;;;4.8;3.7;;;;;;;22.86;41.83496;92352.89;;;;
2024/02/10 14:26:41;;;;;;;4.8;3.7;;;;;;;22.86;41.83496;92352.89;;;;
2024/02/10 14:27:42;;;;;;;4.8;3.7;;;;;;;22.86;41.83496;92352.89;;;;
2024/02/10 14:28:52;;;;;;;3.6;3.3;;;;;;;22.84;42.14551;92338.62;;;;
2024/02/10 14:29:54;;;;;;;3.6;3.3;;;;;;;22.84;42.14551;92338.62;;;;
2024/02/10 14:30:55;;;;;;;3.6;3.3;;;;;;;22.84;42.14551;92338.62;;;;
2024/02/10 14:32:02;;;;;;;3.6;3.3;;;;;;;22.84;42.14551;92338.62;;;;
2024/02/10 14:33:06;;;;;;;3.6;3.3;;;;;;;22.84;42.14551;92338.62;;;;
2024/02/10 14:34:14;;;;;;;3.6;3.3;;;;;;;22.84;42.14551;92338.62;;;;
2024/02/10 14:35:23;;;;;;;3.6;3.3;;;;;;;22.84;42.14551;92338.62;;;;
2024/02/10 14:36:38;;;;;;;3.6;3.3;;;;;;;22.84;42.14551;92338.62;;;;
2024/02/10 14:37:46;;;;;;;3.6;3.3;;;;;;;22.84;42.14551;92338.62;;;;
2024/02/10 14:38:48;;;;;;;3.6;3.3;;;;;;;22.84;42.14551;92338.62;;;;
2024/02/10 14:39:49;;;;;;;4;3.2;;;;;;;22.88;41.73633;92330.02;;;;
2024/02/10 14:40:49;;;;;;;4;3.2;;;;;;;22.88;41.73633;92330.02;;;;
2024/02/10 14:41:51;;;;;;;4;3.2;;;;;;;22.88;41.73633;92330.02;;;;
2024/02/10 14:42:54;;;;;;;4;3.2;;;;;;;22.88;41.73633;92330.02;;;;
2024/02/10 14:43:55;;;;;;;4;3.2;;;;;;;22.88;41.73633;92330.02;;;;
2024/02/10 14:44:55;;;;;;;4;3.2;;;;;;;22.88;41.73633;92330.02;;;;
2024/02/10 14:45:57;;;;;;;4;3.2;;;;;;;22.88;41.73633;92330.02;;;;
2024/02/10 14:46:59;;;;;;;4;3.2;;;;;;;22.88;41.73633;92330.02;;;;
2024/02/10 14:48:03;;;;;;;4;3.2;;;;;;;22.88;41.73633;92330.02;;;;
2024/02/10 14:49:03;;;;;;;4;3.2;;;;;;;22.88;41.73633;92330.02;;;;
2024/02/10 14:50:04;;;;;;;3.95;3.2;;;;;;;22.83;41.81055;92325.33;;;;
2024/02/10 14:51:06;;;;;;;3.95;3.2;;;;;;;22.83;41.81055;92325.33;;;;
2024/02/10 14:52:07;;;;;;;3.95;3.2;;;;;;;22.83;41.81055;92325.33;;;;
2024/02/10 14:53:10;;;;;;;3.95;3.2;;;;;;;22.83;41.81055;92325.33;;;;
2024/02/10 14:54:10;;;;;;;3.95;3.2;;;;;;;22.83;41.81055;92325.33;;;;
2024/02/10 14:55:12;;;;;;;3.95;3.2;;;;;;;22.83;41.81055;92325.33;;;;
2024/02/10 14:56:12;;;;;;;3.95;3.2;;;;;;;22.83;41.81055;92325.33;;;;
2024/02/10 14:57:16;;;;;;;3.95;3.2;;;;;;;22.83;41.81055;92325.33;;;;
2024/02/10 14:58:18;;;;;;;3.95;3.2;;;;;;;22.83;41.81055;92325.33;;;;
2024/02/10 14:59:20;;;;;;;3.95;3.2;;;;;;;22.83;41.81055;92325.33;;;;
2024/02/10 15:00:30;;;;;;;4.9;3;;;;;;;23.18;41.07129;92322.83;;;;
2024/02/10 15:01:34;;;;;;;4.9;3;;;;;;;23.18;41.07129;92322.83;;;;
2024/02/10 15:02:34;;;;;;;4.9;3;;;;;;;23.18;41.07129;92322.83;;;;
2024/02/10 15:03:36;;;;;;;4.9;3;;;;;;;23.18;41.07129;92322.83;;;;
2024/02/10 15:04:38;;;;;;;4.9;3;;;;;;;23.18;41.07129;92322.83;;;;
2024/02/10 15:05:41;;;;;;;4.9;3;;;;;;;23.18;41.07129;92322.83;;;;
2024/02/10 15:06:41;;;;;;;4.9;3;;;;;;;23.18;41.07129;92322.83;;;;
2024/02/10 15:07:42;;;;;;;4.9;3;;;;;;;23.18;41.07129;92322.83;;;;
2024/02/10 15:08:43;;;;;;;4.9;3;;;;;;;23.18;41.07129;92322.83;;;;
2024/02/10 15:09:44;;;;;;;4.9;3;;;;;;;23.18;41.07129;92322.83;;;;
2024/02/10 15:10:45;;;;;;;4.9;3;;;;;;;23.18;41.07129;92322.83;;;;
2024/02/10 15:11:45;;;;;;;3.6;2.900001;;;;;;;22.86;41.7334;92313.06;;;;
2024/02/10 15:12:46;;;;;;;3.6;2.900001;;;;;;;22.86;41.7334;92313.06;;;;
2024/02/10 15:13:46;;;;;;;3.6;2.900001;;;;;;;22.86;41.7334;92313.06;;;;
2024/02/10 15:14:47;;;;;;;3.6;2.900001;;;;;;;22.86;41.7334;92313.06;;;;
2024/02/10 15:15:48;;;;;;;3.6;2.900001;;;;;;;22.86;41.7334;92313.06;;;;
2024/02/10 15:16:48;;;;;;;3.6;2.900001;;;;;;;22.86;41.7334;92313.06;;;;
2024/02/10 15:17:49;;;;;;;3.6;2.900001;;;;;;;22.86;41.7334;92313.06;;;;
2024/02/10 15:18:51;;;;;;;3.6;2.900001;;;;;;;22.86;41.7334;92313.06;;;;
2024/02/10 15:19:52;;;;;;;3.6;2.900001;;;;;;;22.86;41.7334;92313.06;;;;
2024/02/10 15:20:54;;;;;;;3.6;2.900001;;;;;;;22.86;41.7334;92313.06;;;;
2024/02/10 15:21:58;;;;;;;3.25;2.95;;;;;;;22.78;41.90625;92300.42;;;;
2024/02/10 15:23:00;;;;;;;3.25;2.95;;;;;;;22.78;41.90625;92300.42;;;;
2024/02/10 15:24:09;;;;;;;3.25;2.95;;;;;;;22.78;41.90625;92300.42;;;;
2024/02/10 15:25:13;;;;;;;3.25;2.95;;;;;;;22.78;41.90625;92300.42;;;;
2024/02/10 15:26:17;;;;;;;3.25;2.95;;;;;;;22.78;41.90625;92300.42;;;;
2024/02/10 15:27:18;;;;;;;3.25;2.95;;;;;;;22.78;41.90625;92300.42;;;;
2024/02/10 15:28:19;;;;;;;3.25;2.95;;;;;;;22.78;41.90625;92300.42;;;;
2024/02/10 15:29:20;;;;;;;3.25;2.95;;;;;;;22.78;41.90625;92300.42;;;;
2024/02/10 15:30:20;;;;;;;3.25;2.95;;;;;;;22.78;41.90625;92300.42;;;;
2024/02/10 15:31:21;;;;;;;3.25;2.95;;;;;;;22.78;41.90625;92300.42;;;;
2024/02/10 15:32:25;;;;;;;3.2;2.9;;;;;;;22.73;42.06836;92282.81;;;;
2024/02/10 15:33:27;;;;;;;3.2;2.9;;;;;;;22.73;42.06836;92282.81;;;;
2024/02/10 15:34:29;;;;;;;3.2;2.9;;;;;;;22.73;42.06836;92282.81;;;;
2024/02/10 15:35:30;;;;;;;3.2;2.9;;;;;;;22.73;42.06836;92282.81;;;;
2024/02/10 15:36:36;;;;;;;3.2;2.9;;;;;;;22.73;42.06836;92282.81;;;;
2024/02/10 15:37:38;;;;;;;3.2;2.9;;;;;;;22.73;42.06836;92282.81;;;;
2024/02/10 15:38:40;;;;;;;3.2;2.9;;;;;;;22.73;42.06836;92282.81;;;;
2024/02/10 15:39:41;;;;;;;3.2;2.9;;;;;;;22.73;42.06836;92282.81;;;;
2024/02/10 15:40:41;;;;;;;3.2;2.9;;;;;;;22.73;42.06836;92282.81;;;;
2024/02/10 15:41:47;;;;;;;3.2;2.9;;;;;;;22.73;42.06836;92282.81;;;;
2024/02/10 15:42:47;;;;;;;3.2;2.9;;;;;;;22.73;42.06836;92282.81;;;;
2024/02/10 15:43:50;;;;;;;4;3;;;;;;;22.62;42.29395;92283.61;;;;
2024/02/10 15:44:51;;;;;;;4;3;;;;;;;22.62;42.29395;92283.61;;;;
2024/02/10 15:45:51;;;;;;;4;3;;;;;;;22.62;42.29395;92283.61;;;;
2024/02/10 15:46:52;;;;;;;4;3;;;;;;;22.62;42.29395;92283.61;;;;
2024/02/10 15:47:54;;;;;;;4;3;;;;;;;22.62;42.29395;92283.61;;;;
2024/02/10 15:48:55;;;;;;;4;3;;;;;;;22.62;42.29395;92283.61;;;;
2024/02/10 15:49:56;;;;;;;4;3;;;;;;;22.62;42.29395;92283.61;;;;
2024/02/10 15:51:00;;;;;;;4;3;;;;;;;22.62;42.29395;92283.61;;;;
2024/02/10 15:52:00;;;;;;;4;3;;;;;;;22.62;42.29395;92283.61;;;;
2024/02/10 15:53:01;;;;;;;4;3;;;;;;;22.62;42.29395;92283.61;;;;
2024/02/10 15:54:01;;;;;;;3.7;3.1;;;;;;;22.7;42.22168;92271.02;;;;
2024/02/10 15:55:03;;;;;;;3.7;3.1;;;;;;;22.7;42.22168;92271.02;;;;
2024/02/10 15:56:04;;;;;;;3.7;3.1;;;;;;;22.7;42.22168;92271.02;;;;
2024/02/10 15:57:09;;;;;;;3.7;3.1;;;;;;;22.7;42.22168;92271.02;;;;
2024/02/10 15:58:17;;;;;;;3.7;3.1;;;;;;;22.7;42.22168;92271.02;;;;
2024/02/10 15:59:19;;;;;;;3.7;3.1;;;;;;;22.7;42.22168;92271.02;;;;
2024/02/10 16:00:23;;;;;;;3.7;3.1;;;;;;;22.7;42.22168;92271.02;;;;
2024/02/10 16:01:24;;;;;;;3.7;3.1;;;;;;;22.7;42.22168;92271.02;;;;
2024/02/10 16:02:25;;;;;;;3.7;3.1;;;;;;;22.7;42.22168;92271.02;;;;
2024/02/10 16:03:26;;;;;;;3.7;3.1;;;;;;;22.7;42.22168;92271.02;;;;
2024/02/10 16:04:26;;;;;;;3.3;2.7;;;;;;;22.81;42.03125;92272.96;;;;
2024/02/10 16:05:29;;;;;;;3.3;2.7;;;;;;;22.81;42.03125;92272.96;;;;
2024/02/10 16:06:30;;;;;;;3.3;2.7;;;;;;;22.81;42.03125;92272.96;;;;
2024/02/10 16:07:30;;;;;;;3.3;2.7;;;;;;;22.81;42.03125;92272.96;;;;
2024/02/10 16:08:31;;;;;;;3.3;2.7;;;;;;;22.81;42.03125;92272.96;;;;
2024/02/10 16:09:31;;;;;;;3.3;2.7;;;;;;;22.81;42.03125;92272.96;;;;
2024/02/10 16:10:32;;;;;;;3.3;2.7;;;;;;;22.81;42.03125;92272.96;;;;
2024/02/10 16:11:33;;;;;;;3.3;2.7;;;;;;;22.81;42.03125;92272.96;;;;
2024/02/10 16:12:34;;;;;;;3.3;2.7;;;;;;;22.81;42.03125;92272.96;;;;
2024/02/10 16:13:37;;;;;;;3.3;2.7;;;;;;;22.81;42.03125;92272.96;;;;
2024/02/10 16:14:38;;;;;;;3.3;2.7;;;;;;;22.81;42.03125;92272.96;;;;
2024/02/10 16:15:39;;;;;;;2.900001;2.6;;;;;;;22.89;41.81641;92262.3;;;;
2024/02/10 16:16:39;;;;;;;2.900001;2.6;;;;;;;22.89;41.81641;92262.3;;;;
2024/02/10 16:17:40;;;;;;;2.900001;2.6;;;;;;;22.89;41.81641;92262.3;;;;
2024/02/10 16:18:41;;;;;;;2.900001;2.6;;;;;;;22.89;41.81641;92262.3;;;;
2024/02/10 16:19:53;;;;;;;2.900001;2.6;;;;;;;22.89;41.81641;92262.3;;;;
2024/02/10 16:20:53;;;;;;;2.900001;2.6;;;;;;;22.89;41.81641;92262.3;;;;
2024/02/10 16:21:55;;;;;;;2.900001;2.6;;;;;;;22.89;41.81641;92262.3;;;;
2024/02/10 16:22:57;;;;;;;2.900001;2.6;;;;;;;22.89;41.81641;92262.3;;;;
2024/02/10 16:24:01;;;;;;;2.900001;2.6;;;;;;;22.89;41.81641;92262.3;;;;
2024/02/10 16:25:02;;;;;;;2.900001;2.6;;;;;;;22.89;41.81641;92262.3;;;;
2024/02/10 16:26:03;;;;;;;3.4;2.900001;;;;;;;23.03;41.62793;92248.28;;;;
2024/02/10 16:27:05;;;;;;;3.4;2.900001;;;;;;;23.03;41.62793;92248.28;;;;
2024/02/10 16:28:06;;;;;;;3.4;2.900001;;;;;;;23.03;41.62793;92248.28;;;;
2024/02/10 16:29:07;;;;;;;3.4;2.900001;;;;;;;23.03;41.62793;92248.28;;;;
2024/02/10 16:30:08;;;;;;;3.4;2.900001;;;;;;;23.03;41.62793;92248.28;;;;
2024/02/10 16:31:10;;;;;;;3.4;2.900001;;;;;;;23.03;41.62793;92248.28;;;;
2024/02/10 16:32:11;;;;;;;3.4;2.900001;;;;;;;23.03;41.62793;92248.28;;;;
2024/02/10 16:33:11;;;;;;;3.4;2.900001;;;;;;;23.03;41.62793;92248.28;;;;
2024/02/10 16:34:11;;;;;;;3.4;2.900001;;;;;;;23.03;41.62793;92248.28;;;;
2024/02/10 16:35:13;;;;;;;3.4;2.900001;;;;;;;23.03;41.62793;92248.28;;;;
2024/02/10 16:36:15;;;;;;;3.35;2.75;;;;;;;22.94;41.78711;92253.52;;;;
2024/02/10 16:37:16;;;;;;;3.35;2.75;;;;;;;22.94;41.78711;92253.52;;;;
2024/02/10 16:38:17;;;;;;;3.35;2.75;;;;;;;22.94;41.78711;92253.52;;;;
2024/02/10 16:39:18;;;;;;;3.35;2.75;;;;;;;22.94;41.78711;92253.52;;;;
2024/02/10 16:40:20;;;;;;;3.35;2.75;;;;;;;22.94;41.78711;92253.52;;;;
2024/02/10 16:41:22;;;;;;;3.35;2.75;;;;;;;22.94;41.78711;92253.52;;;;
2024/02/10 16:42:25;;;;;;;3.35;2.75;;;;;;;22.94;41.78711;92253.52;;;;
2024/02/10 16:43:26;;;;;;;3.35;2.75;;;;;;;22.94;41.78711;92253.52;;;;
2024/02/10 16:44:27;;;;;;;3.35;2.75;;;;;;;22.94;41.78711;92253.52;;;;
2024/02/10 16:45:27;;;;;;;3.35;2.75;;;;;;;22.94;41.78711;92253.52;;;;
2024/02/10 16:46:31;;;;;;;3.35;2.75;;;;;;;22.94;41.78711;92253.52;;;;
2024/02/10 16:47:32;;;;;;;3.2;2.9;;;;;;;22.97;41.59961;92243.36;;;;
2024/02/10 16:48:34;;;;;;;3.2;2.9;;;;;;;22.97;41.59961;92243.36;;;;
2024/02/10 16:49:35;;;;;;;3.2;2.9;;;;;;;22.97;41.59961;92243.36;;;;
2024/02/10 16:50:38;;;;;;;3.2;2.9;;;;;;;22.97;41.59961;92243.36;;;;
2024/02/10 16:51:39;;;;;;;3.2;2.9;;;;;;;22.97;41.59961;92243.36;;;;
2024/02/10 16:52:40;;;;;;;3.2;2.9;;;;;;;22.97;41.59961;92243.36;;;;
2024/02/10 16:53:41;;;;;;;3.2;2.9;;;;;;;22.97;41.59961;92243.36;;;;
2024/02/10 16:54:42;;;;;;;3.2;2.9;;;;;;;22.97;41.59961;92243.36;;;;
2024/02/10 16:55:42;;;;;;;3.2;2.9;;;;;;;22.97;41.59961;92243.36;;;;
2024/02/10 16:56:43;;;;;;;3.2;2.9;;;;;;;22.97;41.59961;92243.36;;;;
2024/02/10 16:57:45;;;;;;;11.55;3.75;;;;;;;23;41.78027;92241.88;;;;
2024/02/10 16:58:46;;;;;;;11.55;3.75;;;;;;;23;41.78027;92241.88;;;;
2024/02/10 16:59:47;;;;;;;11.55;3.75;;;;;;;23;41.78027;92241.88;;;;
2024/02/10 17:00:48;;;;;;;11.55;3.75;;;;;;;23;41.78027;92241.88;;;;
2024/02/10 17:01:49;;;;;;;11.55;3.75;;;;;;;23;41.78027;92241.88;;;;
2024/02/10 17:02:58;;;;;;;11.55;3.75;;;;;;;23;41.78027;92241.88;;;;
2024/02/10 17:03:58;;;;;;;11.55;3.75;;;;;;;23;41.78027;92241.88;;;;
2024/02/10 17:05:01;;;;;;;11.55;3.75;;;;;;;23;41.78027;92241.88;;;;
2024/02/10 17:06:04;;;;;;;11.55;3.75;;;;;;;23;41.78027;92241.88;;;;
2024/02/10 17:07:07;;;;;;;11.55;3.75;;;;;;;23;41.78027;92241.88;;;;
2024/02/10 17:08:07;;;;;;;11.55;3.75;;;;;;;23;41.78027;92241.88;;;;
2024/02/10 17:09:12;;;;;;;9.000002;3.6;;;;;;;23.17;44.31152;92246.73;;;;
2024/02/10 17:10:13;;;;;;;9.000002;3.6;;;;;;;23.17;44.31152;92246.73;;;;
2024/02/10 17:11:13;;;;;;;9.000002;3.6;;;;;;;23.17;44.31152;92246.73;;;;
2024/02/10 17:12:14;;;;;;;9.000002;3.6;;;;;;;23.17;44.31152;92246.73;;;;
2024/02/10 17:13:14;;;;;;;9.000002;3.6;;;;;;;23.17;44.31152;92246.73;;;;
2024/02/10 17:14:15;;;;;;;9.000002;3.6;;;;;;;23.17;44.31152;92246.73;;;;
2024/02/10 17:15:16;;;;;;;9.000002;3.6;;;;;;;23.17;44.31152;92246.73;;;;
2024/02/10 17:16:17;;;;;;;9.000002;3.6;;;;;;;23.17;44.31152;92246.73;;;;
2024/02/10 17:17:22;;;;;;;9.000002;3.6;;;;;;;23.17;44.31152;92246.73;;;;
2024/02/10 17:18:22;;;;;;;9.000002;3.6;;;;;;;23.17;44.31152;92246.73;;;;
2024/02/10 17:19:22;;;;;;;6.95;3.6;;;;;;;23.11;44.33887;92249.55;;;;
2024/02/10 17:20:24;;;;;;;6.95;3.6;;;;;;;23.11;44.33887;92249.55;;;;
2024/02/10 17:21:25;;;;;;;6.95;3.6;;;;;;;23.11;44.33887;92249.55;;;;
2024/02/10 17:22:26;;;;;;;6.95;3.6;;;;;;;23.11;44.33887;92249.55;;;;
2024/02/10 17:23:27;;;;;;;6.95;3.6;;;;;;;23.11;44.33887;92249.55;;;;
2024/02/10 17:24:27;;;;;;;6.95;3.6;;;;;;;23.11;44.33887;92249.55;;;;
2024/02/10 17:25:31;;;;;;;6.95;3.6;;;;;;;23.11;44.33887;92249.55;;;;
2024/02/10 17:26:37;;;;;;;6.95;3.6;;;;;;;23.11;44.33887;92249.55;;;;
2024/02/10 17:27:38;;;;;;;6.95;3.6;;;;;;;23.11;44.33887;92249.55;;;;
2024/02/10 17:28:38;;;;;;;6.95;3.6;;;;;;;23.11;44.33887;92249.55;;;;
2024/02/10 17:29:39;;;;;;;4.6;3.1;;;;;;;23.02;43.71582;92236.91;;;;
2024/02/10 17:30:39;;;;;;;4.6;3.1;;;;;;;23.02;43.71582;92236.91;;;;
2024/02/10 17:31:40;;;;;;;4.6;3.1;;;;;;;23.02;43.71582;92236.91;;;;
2024/02/10 17:32:40;;;;;;;4.6;3.1;;;;;;;23.02;43.71582;92236.91;;;;
2024/02/10 17:33:41;;;;;;;4.6;3.1;;;;;;;23.02;43.71582;92236.91;;;;
2024/02/10 17:34:41;;;;;;;4.6;3.1;;;;;;;23.02;43.71582;92236.91;;;;